createdAt,value
2016-11-14T00:01:13.055Z,0
2016-11-14T00:02:28.263Z,0
2016-11-14T00:03:43.099Z,0
2016-11-14T00:04:57.602Z,0
2016-11-14T00:06:14.276Z,0
2016-11-14T00:07:27.401Z,0
2016-11-14T00:08:42.460Z,0
2016-11-14T00:09:54.757Z,0
2016-11-14T00:11:11.338Z,0
2016-11-14T00:12:27.509Z,0
2016-11-14T00:13:41.605Z,0
2016-11-14T00:14:57.724Z,0
2016-11-14T00:16:12.565Z,0
2016-11-14T00:17:27.632Z,0
2016-11-14T00:18:40.349Z,0
2016-11-14T00:19:51.147Z,0
2016-11-14T00:21:08.070Z,0
2016-11-14T00:22:20.205Z,0
2016-11-14T00:23:35.220Z,0
2016-11-14T00:24:51.513Z,0
2016-11-14T00:26:07.774Z,0
2016-11-14T00:27:22.447Z,0
2016-11-14T00:28:35.900Z,0
2016-11-14T00:29:52.136Z,0
2016-11-14T00:31:02.685Z,0
2016-11-14T00:32:19.588Z,0
2016-11-14T00:33:34.279Z,0
2016-11-14T00:34:47.171Z,0
2016-11-14T00:36:02.171Z,0
2016-11-14T00:37:18.741Z,0
2016-11-14T00:38:29.372Z,0
2016-11-14T00:39:44.353Z,0
2016-11-14T00:40:57.705Z,0
2016-11-14T00:42:14.754Z,0
2016-11-14T00:43:29.042Z,0
2016-11-14T00:44:43.901Z,0
2016-11-14T00:46:00.331Z,0
2016-11-14T00:47:17.402Z,0
2016-11-14T00:48:32.287Z,0
2016-11-14T00:49:47.104Z,0
2016-11-14T00:51:02.036Z,0
2016-11-14T00:52:18.540Z,0
2016-11-14T00:53:35.238Z,0
2016-11-14T00:54:52.076Z,0
2016-11-14T00:56:07.836Z,0
2016-11-14T00:57:24.815Z,0
2016-11-14T00:58:39.664Z,0
2016-11-14T00:59:56.387Z,0
2016-11-14T01:01:09.991Z,0
2016-11-14T01:02:23.433Z,0
2016-11-14T01:03:39.800Z,0
2016-11-14T01:04:54.978Z,0
2016-11-14T01:06:08.717Z,0
2016-11-14T01:07:23.787Z,0
2016-11-14T01:08:40.621Z,0
2016-11-14T01:09:54.263Z,0
2016-11-14T01:11:09.530Z,0
2016-11-14T01:12:24.609Z,0
2016-11-14T01:13:39.258Z,0
2016-11-14T01:14:55.826Z,0
2016-11-14T01:16:13.095Z,0
2016-11-14T01:17:25.826Z,0
2016-11-14T01:18:40.995Z,0
2016-11-14T01:19:55.876Z,0
2016-11-14T01:21:10.687Z,0
2016-11-14T01:22:25.244Z,0
2016-11-14T01:23:41.411Z,0
2016-11-14T01:24:57.754Z,0
2016-11-14T01:26:13.421Z,0
2016-11-14T01:27:29.284Z,0
2016-11-14T01:28:46.065Z,0
2016-11-14T01:29:59.390Z,0
2016-11-14T01:31:14.049Z,0
2016-11-14T01:32:28.709Z,0
2016-11-14T01:33:43.107Z,0
2016-11-14T01:34:57.883Z,0
2016-11-14T01:36:14.483Z,0
2016-11-14T01:37:30.363Z,0
2016-11-14T01:38:45.101Z,0
2016-11-14T01:39:59.752Z,0
2016-11-14T01:41:14.655Z,0
2016-11-14T01:42:31.380Z,0
2016-11-14T01:43:47.958Z,0
2016-11-14T01:45:01.613Z,0
2016-11-14T01:46:15.206Z,0
2016-11-14T01:47:28.312Z,0
2016-11-14T01:48:43.131Z,0
2016-11-14T01:49:57.560Z,0
2016-11-14T01:51:14.152Z,0
2016-11-14T01:52:29.603Z,0
2016-11-14T01:53:45.648Z,0
2016-11-14T01:55:01.680Z,0
2016-11-14T01:56:15.775Z,0
2016-11-14T01:57:28.986Z,0
2016-11-14T01:58:45.118Z,0
2016-11-14T01:59:57.086Z,0
2016-11-14T02:01:11.116Z,0
2016-11-14T02:02:27.772Z,0
2016-11-14T02:03:42.039Z,0
2016-11-14T02:04:58.324Z,0
2016-11-14T02:06:14.211Z,0
2016-11-14T02:07:28.868Z,0
2016-11-14T02:08:45.220Z,0
2016-11-14T02:10:00.215Z,0
2016-11-14T02:11:12.205Z,0
2016-11-14T02:12:25.184Z,0
2016-11-14T02:13:38.293Z,0
2016-11-14T02:14:52.623Z,0
2016-11-14T02:16:07.214Z,0
2016-11-14T02:17:20.874Z,0
2016-11-14T02:18:37.171Z,0
2016-11-14T02:19:52.612Z,0
2016-11-14T02:21:07.351Z,0
2016-11-14T02:22:22.009Z,0
2016-11-14T02:23:37.367Z,0
2016-11-14T02:24:53.804Z,0
2016-11-14T02:26:09.831Z,0
2016-11-14T02:27:26.492Z,0
2016-11-14T02:28:41.391Z,0
2016-11-14T02:29:55.926Z,0
2016-11-14T02:31:10.766Z,0
2016-11-14T02:32:23.002Z,0
2016-11-14T02:33:38.670Z,0
2016-11-14T02:34:52.117Z,0
2016-11-14T02:36:06.846Z,0
2016-11-14T02:37:23.385Z,0
2016-11-14T02:38:36.746Z,0
2016-11-14T02:39:53.476Z,0
2016-11-14T02:41:08.512Z,0
2016-11-14T02:42:24.177Z,0
2016-11-14T02:43:40.473Z,0
2016-11-14T02:44:56.731Z,0
2016-11-14T02:46:12.594Z,0
2016-11-14T02:47:27.307Z,0
2016-11-14T02:48:42.487Z,0
2016-11-14T02:49:58.117Z,0
2016-11-14T02:51:12.945Z,0
2016-11-14T02:52:29.125Z,0
2016-11-14T02:53:45.478Z,0
2016-11-14T02:55:01.652Z,0
2016-11-14T02:56:14.643Z,0
2016-11-14T02:57:29.220Z,0
2016-11-14T02:58:45.541Z,0
2016-11-14T03:00:02.273Z,0
2016-11-14T03:01:14.107Z,0
2016-11-14T03:02:29.753Z,0
2016-11-14T03:03:44.001Z,0
2016-11-14T03:04:59.783Z,0
2016-11-14T03:06:14.252Z,0
2016-11-14T03:07:26.151Z,0
2016-11-14T03:08:42.409Z,0
2016-11-14T03:09:58.390Z,0
2016-11-14T03:11:12.434Z,0
2016-11-14T03:12:28.597Z,0
2016-11-14T03:13:43.108Z,0
2016-11-14T03:14:59.325Z,0
2016-11-14T03:16:12.984Z,0
2016-11-14T03:17:27.019Z,0
2016-11-14T03:18:38.843Z,0
2016-11-14T03:19:52.016Z,0
2016-11-14T03:21:08.119Z,0
2016-11-14T03:22:21.282Z,0
2016-11-14T03:23:37.188Z,0
2016-11-14T03:24:51.909Z,0
2016-11-14T03:26:05.348Z,0
2016-11-14T03:27:20.506Z,0
2016-11-14T03:28:36.363Z,0
2016-11-14T03:29:50.092Z,0
2016-11-14T03:31:05.301Z,0
2016-11-14T03:32:20.242Z,0
2016-11-14T03:33:34.331Z,0
2016-11-14T03:34:48.126Z,0
2016-11-14T03:36:04.498Z,0
2016-11-14T03:37:20.604Z,0
2016-11-14T03:38:35.697Z,0
2016-11-14T03:39:50.276Z,0
2016-11-14T03:41:05.326Z,0
2016-11-14T03:42:22.424Z,0
2016-11-14T03:43:36.100Z,0
2016-11-14T03:44:51.883Z,0
2016-11-14T03:46:04.947Z,0
2016-11-14T03:47:18.466Z,0
2016-11-14T03:48:33.161Z,0
2016-11-14T03:49:49.847Z,0
2016-11-14T03:51:03.887Z,0
2016-11-14T03:52:17.359Z,0
2016-11-14T03:53:31.997Z,0
2016-11-14T03:54:47.293Z,0
2016-11-14T03:56:03.419Z,0
2016-11-14T03:57:17.659Z,0
2016-11-14T03:58:33.966Z,0
2016-11-14T03:59:46.190Z,0
2016-11-14T04:01:00.871Z,0
2016-11-14T04:02:15.780Z,0
2016-11-14T04:03:27.401Z,0
2016-11-14T04:04:44.515Z,0
2016-11-14T04:05:59.567Z,0
2016-11-14T04:07:15.641Z,0
2016-11-14T04:08:30.344Z,0
2016-11-14T04:09:43.736Z,0
2016-11-14T04:10:58.170Z,0
2016-11-14T04:12:13.183Z,0
2016-11-14T04:13:29.808Z,0
2016-11-14T04:14:45.413Z,0
2016-11-14T04:15:58.324Z,0
2016-11-14T04:17:13.204Z,0
2016-11-14T04:18:27.762Z,0
2016-11-14T04:19:43.674Z,0
2016-11-14T04:20:58.011Z,0
2016-11-14T04:22:14.162Z,0
2016-11-14T04:23:28.691Z,0
2016-11-14T04:24:43.448Z,0
2016-11-14T04:25:58.137Z,0
2016-11-14T04:27:14.042Z,0
2016-11-14T04:28:27.149Z,0
2016-11-14T04:29:41.394Z,0
2016-11-14T04:30:55.612Z,0
2016-11-14T04:32:11.912Z,0
2016-11-14T04:33:27.044Z,0
2016-11-14T04:34:41.945Z,0
2016-11-14T04:35:55.696Z,0
2016-11-14T04:37:10.514Z,0
2016-11-14T04:38:22.590Z,0
2016-11-14T04:39:36.929Z,0
2016-11-14T04:40:53.470Z,0
2016-11-14T04:42:09.616Z,0
2016-11-14T04:43:24.136Z,0
2016-11-14T04:44:37.644Z,0
2016-11-14T04:45:51.833Z,0
2016-11-14T04:47:06.830Z,0
2016-11-14T04:48:21.510Z,0
2016-11-14T04:49:37.472Z,0
2016-11-14T04:50:52.308Z,0
2016-11-14T04:52:06.961Z,0
2016-11-14T04:53:21.911Z,0
2016-11-14T04:54:36.285Z,0
2016-11-14T04:55:51.901Z,0
2016-11-14T04:57:07.951Z,0
2016-11-14T04:58:21.374Z,0
2016-11-14T04:59:35.178Z,0
2016-11-14T05:00:51.300Z,0
2016-11-14T05:02:07.460Z,0
2016-11-14T05:03:22.144Z,0
2016-11-14T05:04:37.152Z,0
2016-11-14T05:05:51.965Z,0
2016-11-14T05:07:05.334Z,0
2016-11-14T05:08:18.810Z,0
2016-11-14T05:09:34.515Z,0
2016-11-14T05:10:50.658Z,0
2016-11-14T05:12:05.685Z,0
2016-11-14T05:13:22.106Z,0
2016-11-14T05:14:38.442Z,0
2016-11-14T05:15:53.382Z,0
2016-11-14T05:17:08.238Z,0
2016-11-14T05:18:22.647Z,0
2016-11-14T05:19:35.780Z,0
2016-11-14T05:20:50.439Z,0
2016-11-14T05:22:05.036Z,0
2016-11-14T05:23:19.136Z,0
2016-11-14T05:24:32.418Z,0
2016-11-14T05:25:47.508Z,0
2016-11-14T05:27:02.510Z,0
2016-11-14T05:28:17.420Z,0
2016-11-14T05:29:30.570Z,0
2016-11-14T05:30:44.027Z,0
2016-11-14T05:31:59.102Z,0
2016-11-14T05:33:12.600Z,0
2016-11-14T05:34:27.010Z,0
2016-11-14T05:35:42.095Z,0
2016-11-14T05:36:56.754Z,0
2016-11-14T05:38:11.487Z,0
2016-11-14T05:39:28.592Z,0
2016-11-14T05:40:42.925Z,0
2016-11-14T05:41:57.759Z,0
2016-11-14T05:43:11.159Z,0
2016-11-14T05:44:26.231Z,0
2016-11-14T05:45:41.200Z,0
2016-11-14T05:46:52.865Z,0
2016-11-14T05:48:07.794Z,0
2016-11-14T05:49:23.959Z,0
2016-11-14T05:50:39.142Z,0
2016-11-14T05:51:55.312Z,0
2016-11-14T05:53:11.715Z,0
2016-11-14T05:54:26.520Z,0
2016-11-14T05:55:41.477Z,0
2016-11-14T05:56:56.155Z,0
2016-11-14T05:58:10.608Z,0
2016-11-14T05:59:27.057Z,0
2016-11-14T06:00:41.696Z,0
2016-11-14T06:01:56.263Z,0
2016-11-14T06:03:12.399Z,0
2016-11-14T06:04:29.055Z,0
2016-11-14T06:05:41.357Z,0
2016-11-14T06:06:56.825Z,0
2016-11-14T06:08:13.098Z,4
2016-11-14T06:09:28.813Z,0
2016-11-14T06:10:43.481Z,0
2016-11-14T06:11:58.055Z,4
2016-11-14T06:13:12.550Z,4
2016-11-14T06:14:26.068Z,4
2016-11-14T06:15:39.289Z,4
2016-11-14T06:16:55.363Z,4
2016-11-14T06:18:11.747Z,8
2016-11-14T06:19:27.955Z,8
2016-11-14T06:20:41.685Z,12
2016-11-14T06:21:56.597Z,12
2016-11-14T06:23:13.185Z,20
2016-11-14T06:24:29.595Z,24
2016-11-14T06:25:44.648Z,28
2016-11-14T06:27:01.254Z,36
2016-11-14T06:28:11.515Z,40
2016-11-14T06:29:27.833Z,48
2016-11-14T06:30:44.692Z,60
2016-11-14T06:32:00.043Z,68
2016-11-14T06:33:16.440Z,80
2016-11-14T06:34:33.212Z,96
2016-11-14T06:35:49.601Z,112
2016-11-14T06:37:04.536Z,128
2016-11-14T06:38:19.855Z,148
2016-11-14T06:39:35.918Z,172
2016-11-14T06:40:50.871Z,196
2016-11-14T06:42:04.649Z,220
2016-11-14T06:43:21.479Z,248
2016-11-14T06:44:37.512Z,280
2016-11-14T06:45:50.616Z,308
2016-11-14T06:47:07.426Z,340
2016-11-14T06:48:23.907Z,380
2016-11-14T06:49:37.591Z,412
2016-11-14T06:50:53.102Z,444
2016-11-14T06:52:07.911Z,480
2016-11-14T06:53:22.315Z,524
2016-11-14T06:54:35.585Z,572
2016-11-14T06:55:51.883Z,620
2016-11-14T06:57:08.422Z,664
2016-11-14T06:58:22.796Z,712
2016-11-14T06:59:37.465Z,768
2016-11-14T07:00:50.119Z,828
2016-11-14T07:02:04.391Z,888
2016-11-14T07:03:18.451Z,948
2016-11-14T07:04:32.849Z,1008
2016-11-14T07:05:47.912Z,1068
2016-11-14T07:07:03.171Z,1136
2016-11-14T07:08:17.455Z,1204
2016-11-14T07:09:31.935Z,1272
2016-11-14T07:10:46.875Z,1332
2016-11-14T07:12:01.412Z,1392
2016-11-14T07:13:16.317Z,1460
2016-11-14T07:14:31.492Z,1528
2016-11-14T07:15:44.861Z,1600
2016-11-14T07:17:01.676Z,1676
2016-11-14T07:18:17.213Z,1744
2016-11-14T07:19:28.889Z,1816
2016-11-14T07:20:44.986Z,1896
2016-11-14T07:21:59.626Z,1972
2016-11-14T07:23:14.248Z,2056
2016-11-14T07:24:31.354Z,2172
2016-11-14T07:25:46.963Z,2460
2016-11-14T07:27:02.052Z,3192
2016-11-14T07:28:18.169Z,3684
2016-11-14T07:29:32.650Z,3872
2016-11-14T07:30:47.729Z,4028
2016-11-14T07:32:04.208Z,4224
2016-11-14T07:33:20.234Z,4476
2016-11-14T07:34:35.731Z,4680
2016-11-14T07:35:50.523Z,4848
2016-11-14T07:37:06.282Z,5008
2016-11-14T07:38:21.327Z,5224
2016-11-14T07:39:37.812Z,5460
2016-11-14T07:40:52.419Z,5688
2016-11-14T07:42:03.998Z,5796
2016-11-14T07:43:20.445Z,5968
2016-11-14T07:44:34.696Z,6188
2016-11-14T07:45:51.238Z,6448
2016-11-14T07:47:05.882Z,6692
2016-11-14T07:48:19.170Z,6988
2016-11-14T07:49:35.974Z,7196
2016-11-14T07:50:52.327Z,7616
2016-11-14T07:52:06.872Z,8032
2016-11-14T07:53:21.647Z,8360
2016-11-14T07:54:38.072Z,8732
2016-11-14T07:55:51.881Z,9048
2016-11-14T07:57:05.459Z,9232
2016-11-14T07:58:21.833Z,9612
2016-11-14T07:59:36.656Z,10032
2016-11-14T08:00:52.563Z,10140
2016-11-14T08:02:05.816Z,10116
2016-11-14T08:03:20.284Z,10172
2016-11-14T08:04:34.029Z,10260
2016-11-14T08:05:49.682Z,10488
2016-11-14T08:07:04.123Z,10464
2016-11-14T08:08:20.545Z,10568
2016-11-14T08:09:36.422Z,10448
2016-11-14T08:10:49.442Z,10036
2016-11-14T08:12:05.941Z,10108
2016-11-14T08:13:22.588Z,10040
2016-11-14T08:14:37.410Z,9520
2016-11-14T08:15:52.460Z,9816
2016-11-14T08:17:07.350Z,9836
2016-11-14T08:18:24.457Z,9704
2016-11-14T08:19:41.047Z,9276
2016-11-14T08:20:55.645Z,9988
2016-11-14T08:22:11.834Z,7928
2016-11-14T08:23:28.143Z,11832
2016-11-14T08:24:45.007Z,11560
2016-11-14T08:25:58.986Z,11336
2016-11-14T08:27:14.474Z,10840
2016-11-14T08:28:29.500Z,10988
2016-11-14T08:29:46.361Z,11056
2016-11-14T08:31:02.480Z,11632
2016-11-14T08:32:18.477Z,11268
2016-11-14T08:33:32.096Z,11472
2016-11-14T08:34:48.447Z,11308
2016-11-14T08:36:03.426Z,12576
2016-11-14T08:37:19.402Z,13612
2016-11-14T08:38:36.086Z,14272
2016-11-14T08:39:49.451Z,12832
2016-11-14T08:41:02.832Z,15072
2016-11-14T08:42:15.910Z,15072
2016-11-14T08:43:30.606Z,15776
2016-11-14T08:44:44.868Z,16160
2016-11-14T08:45:58.687Z,16096
2016-11-14T08:47:10.777Z,16480
2016-11-14T08:48:26.219Z,16608
2016-11-14T08:49:42.856Z,16416
2016-11-14T08:50:57.761Z,16448
2016-11-14T08:52:14.229Z,16960
2016-11-14T08:53:30.503Z,17344
2016-11-14T08:54:44.030Z,17824
2016-11-14T08:56:00.184Z,17408
2016-11-14T08:57:15.008Z,18688
2016-11-14T08:58:30.765Z,19264
2016-11-14T08:59:44.631Z,17888
2016-11-14T09:00:59.752Z,18880
2016-11-14T09:02:15.392Z,20320
2016-11-14T09:03:30.105Z,19456
2016-11-14T09:04:43.780Z,19744
2016-11-14T09:05:56.138Z,20448
2016-11-14T09:07:12.693Z,20800
2016-11-14T09:08:28.330Z,20576
2016-11-14T09:09:43.820Z,20512
2016-11-14T09:10:57.714Z,19872
2016-11-14T09:12:10.529Z,19456
2016-11-14T09:13:22.763Z,20864
2016-11-14T09:14:37.877Z,21536
2016-11-14T09:15:54.124Z,21440
2016-11-14T09:17:09.004Z,21600
2016-11-14T09:18:22.875Z,22016
2016-11-14T09:19:37.700Z,22368
2016-11-14T09:20:52.660Z,22272
2016-11-14T09:22:04.417Z,22592
2016-11-14T09:23:18.939Z,22208
2016-11-14T09:24:32.494Z,23200
2016-11-14T09:25:46.078Z,22848
2016-11-14T09:27:02.047Z,24000
2016-11-14T09:28:17.574Z,23968
2016-11-14T09:29:32.125Z,24000
2016-11-14T09:30:46.984Z,23296
2016-11-14T09:32:00.858Z,11188
2016-11-14T09:33:15.160Z,10144
2016-11-14T09:34:30.461Z,9840
2016-11-14T09:35:45.389Z,10040
2016-11-14T09:37:02.237Z,10036
2016-11-14T09:38:16.849Z,9852
2016-11-14T09:39:27.269Z,9924
2016-11-14T09:40:44.215Z,9896
2016-11-14T09:41:59.731Z,10004
2016-11-14T09:43:16.237Z,11060
2016-11-14T09:44:30.851Z,10332
2016-11-14T09:45:41.587Z,10316
2016-11-14T09:46:58.027Z,10292
2016-11-14T09:48:12.676Z,10460
2016-11-14T09:49:26.491Z,10816
2016-11-14T09:50:42.648Z,11376
2016-11-14T09:51:58.389Z,10864
2016-11-14T09:53:14.805Z,10912
2016-11-14T09:54:27.997Z,10548
2016-11-14T09:55:41.941Z,10456
2016-11-14T09:56:54.929Z,10568
2016-11-14T09:58:10.003Z,11004
2016-11-14T09:59:23.382Z,10868
2016-11-14T10:00:36.353Z,11040
2016-11-14T10:01:49.903Z,11732
2016-11-14T10:03:00.720Z,11840
2016-11-14T10:04:16.699Z,12084
2016-11-14T10:05:33.268Z,12280
2016-11-14T10:06:49.269Z,12548
2016-11-14T10:08:06.096Z,13196
2016-11-14T10:09:22.542Z,12116
2016-11-14T10:10:39.074Z,11500
2016-11-14T10:11:52.403Z,11300
2016-11-14T10:13:07.426Z,11536
2016-11-14T10:14:20.832Z,11516
2016-11-14T10:15:36.954Z,11948
2016-11-14T10:16:52.723Z,11088
2016-11-14T10:18:09.567Z,11784
2016-11-14T10:19:23.179Z,11232
2016-11-14T10:20:39.633Z,11176
2016-11-14T10:21:51.650Z,10996
2016-11-14T10:23:06.309Z,11460
2016-11-14T10:24:21.308Z,11720
2016-11-14T10:25:38.219Z,12112
2016-11-14T10:26:52.259Z,11720
2016-11-14T10:28:05.384Z,12064
2016-11-14T10:29:20.289Z,13656
2016-11-14T10:30:36.283Z,12308
2016-11-14T10:31:52.382Z,11484
2016-11-14T10:33:08.503Z,11592
2016-11-14T10:34:21.671Z,11104
2016-11-14T10:35:37.619Z,10688
2016-11-14T10:36:50.865Z,10376
2016-11-14T10:38:06.777Z,10280
2016-11-14T10:39:18.623Z,10300
2016-11-14T10:40:33.318Z,10480
2016-11-14T10:41:48.239Z,10688
2016-11-14T10:43:03.390Z,10696
2016-11-14T10:44:16.604Z,10552
2016-11-14T10:45:32.512Z,10228
2016-11-14T10:46:47.773Z,9756
2016-11-14T10:48:02.364Z,9192
2016-11-14T10:49:17.157Z,8912
2016-11-14T10:50:31.010Z,8796
2016-11-14T10:51:47.300Z,8740
2016-11-14T10:53:00.457Z,8736
2016-11-14T10:54:16.533Z,8688
2016-11-14T10:55:32.011Z,8588
2016-11-14T10:56:48.663Z,8648
2016-11-14T10:58:02.190Z,8804
2016-11-14T10:59:16.083Z,9076
2016-11-14T11:00:32.422Z,9440
2016-11-14T11:01:47.065Z,9652
2016-11-14T11:03:01.498Z,9488
2016-11-14T11:04:15.347Z,9152
2016-11-14T11:05:31.265Z,8860
2016-11-14T11:06:47.151Z,8784
2016-11-14T11:08:01.814Z,8812
2016-11-14T11:09:16.412Z,8804
2016-11-14T11:10:30.897Z,8696
2016-11-14T11:11:44.492Z,8592
2016-11-14T11:13:00.110Z,8564
2016-11-14T11:14:14.425Z,8500
2016-11-14T11:15:29.513Z,8420
2016-11-14T11:16:44.200Z,8640
2016-11-14T11:17:59.836Z,8816
2016-11-14T11:19:14.245Z,9120
2016-11-14T11:20:26.473Z,9304
2016-11-14T11:21:43.136Z,9232
2016-11-14T11:22:57.781Z,9144
2016-11-14T11:24:12.044Z,8920
2016-11-14T11:25:26.623Z,8848
2016-11-14T11:26:38.624Z,8960
2016-11-14T11:27:53.590Z,9056
2016-11-14T11:29:08.761Z,8860
2016-11-14T11:30:23.834Z,8560
2016-11-14T11:31:37.221Z,8276
2016-11-14T11:32:52.320Z,8072
2016-11-14T11:34:09.253Z,7976
2016-11-14T11:35:24.183Z,7872
2016-11-14T11:36:38.625Z,7832
2016-11-14T11:37:53.203Z,7764
2016-11-14T11:39:09.228Z,7560
2016-11-14T11:40:25.656Z,7496
2016-11-14T11:41:42.038Z,7624
2016-11-14T11:42:58.817Z,7740
2016-11-14T11:44:13.952Z,7780
2016-11-14T11:45:27.638Z,7776
2016-11-14T11:46:42.476Z,7776
2016-11-14T11:47:57.237Z,7968
2016-11-14T11:49:09.305Z,8180
2016-11-14T11:50:22.380Z,8220
2016-11-14T11:51:37.519Z,8132
2016-11-14T11:52:50.867Z,7976
2016-11-14T11:54:06.381Z,7624
2016-11-14T11:55:22.277Z,7180
2016-11-14T11:56:35.755Z,6896
2016-11-14T11:57:50.368Z,6808
2016-11-14T11:59:05.751Z,6776
2016-11-14T12:00:21.821Z,6720
2016-11-14T12:01:34.611Z,6564
2016-11-14T12:02:49.517Z,6360
2016-11-14T12:04:02.874Z,6144
2016-11-14T12:05:18.853Z,5964
2016-11-14T12:06:33.921Z,5832
2016-11-14T12:07:49.307Z,5788
2016-11-14T12:09:05.841Z,5840
2016-11-14T12:10:18.115Z,5884
2016-11-14T12:11:32.466Z,5944
2016-11-14T12:12:46.455Z,5924
2016-11-14T12:14:01.123Z,5720
2016-11-14T12:15:16.192Z,5480
2016-11-14T12:16:31.471Z,5240
2016-11-14T12:17:47.369Z,5112
2016-11-14T12:19:00.549Z,5288
2016-11-14T12:20:14.238Z,5492
2016-11-14T12:21:29.650Z,5656
2016-11-14T12:22:46.176Z,5744
2016-11-14T12:23:59.148Z,5804
2016-11-14T12:25:14.328Z,5948
2016-11-14T12:26:29.953Z,6024
2016-11-14T12:27:42.989Z,6024
2016-11-14T12:28:59.741Z,5972
2016-11-14T12:30:14.832Z,6060
2016-11-14T12:31:31.331Z,6060
2016-11-14T12:32:46.521Z,6004
2016-11-14T12:34:00.807Z,6076
2016-11-14T12:35:14.666Z,6088
2016-11-14T12:36:29.814Z,5792
2016-11-14T12:37:44.877Z,5340
2016-11-14T12:38:58.524Z,4904
2016-11-14T12:40:11.595Z,4612
2016-11-14T12:41:27.471Z,4800
2016-11-14T12:42:42.990Z,5288
2016-11-14T12:43:56.242Z,5588
2016-11-14T12:45:11.311Z,5352
2016-11-14T12:46:27.426Z,4980
2016-11-14T12:47:43.583Z,4892
2016-11-14T12:48:59.647Z,4964
2016-11-14T12:50:14.501Z,5020
2016-11-14T12:51:27.977Z,5008
2016-11-14T12:52:43.219Z,4940
2016-11-14T12:53:56.443Z,4908
2016-11-14T12:55:11.670Z,5036
2016-11-14T12:56:28.189Z,5224
2016-11-14T12:57:44.295Z,5436
2016-11-14T12:58:57.958Z,5612
2016-11-14T13:00:14.025Z,5780
2016-11-14T13:01:28.631Z,5868
2016-11-14T13:02:42.250Z,5888
2016-11-14T13:03:56.963Z,5856
2016-11-14T13:05:13.223Z,5772
2016-11-14T13:06:29.875Z,5684
2016-11-14T13:07:43.754Z,5592
2016-11-14T13:09:00.377Z,5512
2016-11-14T13:10:17.444Z,5468
2016-11-14T13:11:32.206Z,5428
2016-11-14T13:12:47.142Z,5416
2016-11-14T13:14:02.043Z,5420
2016-11-14T13:15:16.400Z,5404
2016-11-14T13:16:32.540Z,5392
2016-11-14T13:17:47.198Z,5352
2016-11-14T13:19:03.745Z,5292
2016-11-14T13:20:18.019Z,5216
2016-11-14T13:21:33.528Z,5140
2016-11-14T13:22:49.491Z,5040
2016-11-14T13:24:04.740Z,4948
2016-11-14T13:25:18.248Z,4844
2016-11-14T13:26:33.092Z,4756
2016-11-14T13:27:49.392Z,4684
2016-11-14T13:29:05.451Z,4632
2016-11-14T13:30:19.022Z,4584
2016-11-14T13:31:35.739Z,4536
2016-11-14T13:32:52.217Z,4492
2016-11-14T13:34:05.825Z,4444
2016-11-14T13:35:22.308Z,4376
2016-11-14T13:36:38.647Z,4296
2016-11-14T13:37:53.415Z,4236
2016-11-14T13:39:06.777Z,4200
2016-11-14T13:40:22.614Z,4176
2016-11-14T13:41:38.582Z,4160
2016-11-14T13:42:54.911Z,4148
2016-11-14T13:44:08.309Z,4136
2016-11-14T13:45:24.689Z,4116
2016-11-14T13:46:40.640Z,4112
2016-11-14T13:47:57.484Z,4108
2016-11-14T13:49:12.714Z,4088
2016-11-14T13:50:29.407Z,4044
2016-11-14T13:51:44.230Z,3992
2016-11-14T13:52:58.832Z,3940
2016-11-14T13:54:12.013Z,3900
2016-11-14T13:55:26.963Z,3876
2016-11-14T13:56:40.090Z,3836
2016-11-14T13:57:56.256Z,3776
2016-11-14T13:59:11.283Z,3700
2016-11-14T14:00:27.771Z,3596
2016-11-14T14:01:43.912Z,3508
2016-11-14T14:02:59.351Z,3440
2016-11-14T14:04:12.656Z,3388
2016-11-14T14:05:25.404Z,3336
2016-11-14T14:06:40.223Z,3268
2016-11-14T14:07:53.858Z,3200
2016-11-14T14:09:10.387Z,3132
2016-11-14T14:10:25.871Z,3064
2016-11-14T14:11:41.940Z,2992
2016-11-14T14:12:55.617Z,2916
2016-11-14T14:14:09.071Z,2836
2016-11-14T14:15:24.340Z,2756
2016-11-14T14:16:39.303Z,2676
2016-11-14T14:17:54.114Z,2600
2016-11-14T14:19:08.032Z,2516
2016-11-14T14:20:24.572Z,2428
2016-11-14T14:21:37.971Z,2344
2016-11-14T14:22:51.740Z,2240
2016-11-14T14:24:06.489Z,2144
2016-11-14T14:25:20.252Z,2052
2016-11-14T14:26:34.496Z,1984
2016-11-14T14:27:48.297Z,1928
2016-11-14T14:29:01.492Z,1884
2016-11-14T14:30:14.000Z,1844
2016-11-14T14:31:30.191Z,1796
2016-11-14T14:32:43.320Z,1760
2016-11-14T14:33:57.831Z,1720
2016-11-14T14:35:11.111Z,1688
2016-11-14T14:36:26.577Z,1656
2016-11-14T14:37:40.884Z,1628
2016-11-14T14:38:55.405Z,1588
2016-11-14T14:40:09.512Z,1552
2016-11-14T14:41:24.983Z,1496
2016-11-14T14:42:39.730Z,1436
2016-11-14T14:43:56.326Z,1368
2016-11-14T14:45:11.600Z,1296
2016-11-14T14:46:27.969Z,1236
2016-11-14T14:47:40.928Z,1184
2016-11-14T14:48:51.316Z,1144
2016-11-14T14:50:07.754Z,1108
2016-11-14T14:51:22.860Z,1072
2016-11-14T14:52:37.787Z,1044
2016-11-14T14:53:54.328Z,1016
2016-11-14T14:55:10.232Z,992
2016-11-14T14:56:21.830Z,972
2016-11-14T14:57:36.203Z,948
2016-11-14T14:58:51.267Z,936
2016-11-14T15:00:04.640Z,916
2016-11-14T15:01:19.691Z,900
2016-11-14T15:02:35.069Z,876
2016-11-14T15:03:50.162Z,844
2016-11-14T15:05:05.084Z,804
2016-11-14T15:06:19.124Z,764
2016-11-14T15:07:32.730Z,720
2016-11-14T15:08:47.605Z,680
2016-11-14T15:10:03.913Z,636
2016-11-14T15:11:20.615Z,600
2016-11-14T15:12:35.737Z,572
2016-11-14T15:13:48.191Z,540
2016-11-14T15:15:02.699Z,512
2016-11-14T15:16:14.839Z,484
2016-11-14T15:17:29.447Z,456
2016-11-14T15:18:44.483Z,428
2016-11-14T15:20:01.331Z,400
2016-11-14T15:21:15.449Z,372
2016-11-14T15:22:31.979Z,348
2016-11-14T15:23:44.952Z,324
2016-11-14T15:25:00.669Z,296
2016-11-14T15:26:13.470Z,268
2016-11-14T15:27:29.755Z,244
2016-11-14T15:28:46.686Z,216
2016-11-14T15:30:02.833Z,192
2016-11-14T15:31:17.646Z,164
2016-11-14T15:32:31.708Z,148
2016-11-14T15:33:48.234Z,128
2016-11-14T15:35:04.930Z,116
2016-11-14T15:36:20.913Z,104
2016-11-14T15:37:35.361Z,92
2016-11-14T15:38:49.696Z,84
2016-11-14T15:40:05.837Z,72
2016-11-14T15:41:21.004Z,68
2016-11-14T15:42:38.015Z,60
2016-11-14T15:43:54.363Z,52
2016-11-14T15:45:04.764Z,48
2016-11-14T15:46:19.984Z,40
2016-11-14T15:47:35.903Z,32
2016-11-14T15:48:52.599Z,32
2016-11-14T15:50:08.521Z,24
2016-11-14T15:51:23.979Z,48
2016-11-14T15:52:38.359Z,44
2016-11-14T15:53:55.658Z,44
2016-11-14T15:55:09.042Z,40
2016-11-14T15:56:22.193Z,36
2016-11-14T15:57:36.072Z,36
2016-11-14T15:58:51.433Z,36
2016-11-14T16:00:04.832Z,32
2016-11-14T16:04:50.925Z,32
2016-11-14T16:06:06.517Z,4
2016-11-14T16:07:19.602Z,0
2016-11-14T16:08:34.982Z,0
2016-11-14T16:09:49.373Z,0
2016-11-14T16:11:04.082Z,0
2016-11-14T16:12:20.287Z,4
2016-11-14T16:13:36.420Z,4
2016-11-14T16:14:51.768Z,4
2016-11-14T16:16:07.007Z,4
2016-11-14T16:17:23.314Z,0
2016-11-14T16:18:37.599Z,0
2016-11-14T16:19:54.370Z,0
2016-11-14T16:21:09.720Z,0
2016-11-14T16:22:24.087Z,0
2016-11-14T16:23:38.127Z,0
2016-11-14T16:24:51.540Z,0
2016-11-14T16:26:07.771Z,0
2016-11-14T16:27:24.072Z,0
2016-11-14T16:28:37.356Z,0
2016-11-14T16:29:51.862Z,0
2016-11-14T16:31:06.604Z,0
2016-11-14T16:32:22.552Z,0
2016-11-14T16:33:37.220Z,0
2016-11-14T16:34:53.143Z,0
2016-11-14T16:36:08.228Z,0
2016-11-14T16:37:23.505Z,0
2016-11-14T16:38:38.424Z,0
2016-11-14T16:39:54.513Z,0
2016-11-14T16:41:10.775Z,0
2016-11-14T16:42:25.791Z,0
2016-11-14T16:43:41.399Z,0
2016-11-14T16:44:54.858Z,0
2016-11-14T16:46:10.998Z,0
2016-11-14T16:47:26.316Z,0
2016-11-14T16:48:39.685Z,0
2016-11-14T16:49:54.121Z,0
2016-11-14T16:51:09.321Z,0
2016-11-14T16:52:23.979Z,0
2016-11-14T16:53:39.322Z,0
2016-11-14T16:54:51.291Z,0
2016-11-14T16:56:08.206Z,0
2016-11-14T16:57:23.239Z,0
2016-11-14T16:58:38.205Z,0
2016-11-14T16:59:52.813Z,0
2016-11-14T17:01:07.902Z,0
2016-11-14T17:02:21.235Z,0
2016-11-14T17:03:35.668Z,0
2016-11-14T17:04:47.225Z,0
2016-11-14T17:06:01.576Z,0
2016-11-14T17:07:17.863Z,0
2016-11-14T17:08:34.584Z,0
2016-11-14T17:09:49.279Z,0
2016-11-14T17:11:03.980Z,0
2016-11-14T17:12:17.587Z,0
2016-11-14T17:13:29.364Z,0
2016-11-14T17:14:43.372Z,0
2016-11-14T17:15:58.304Z,0
2016-11-14T17:17:13.151Z,0
2016-11-14T17:18:29.654Z,0
2016-11-14T17:19:46.260Z,0
2016-11-14T17:21:01.992Z,0
2016-11-14T17:22:16.846Z,0
2016-11-14T17:23:28.886Z,0
2016-11-14T17:24:44.961Z,0
2016-11-14T17:25:59.814Z,0
2016-11-14T17:27:16.134Z,0